Canada's Largest FIR

CZEG Edmonton

Screenshot by Thomas Smith

  Upcoming Events

Stay tuned here for upcoming events!

  Online Controllers

No controllers online.

  Weather

CYYC - Calgary International Airport  
CYYC 241500Z 27003KT 230V010 40SM SCT096 OVC250 08/03 A2972 RMK ACC3CI5 VIRGA SLP088 DENSITY ALT 3900FT

CYEG - Edmonton International Airport  
CYEG 241500Z 11006KT 060V140 20SM FEW027 BKN078 BKN250 10/03 A2975 RMK CU1AC6CI1 CU TR CI TR SLP091

CYXY - Whitehorse / Erik Nielsen International Airport  
CYXY 241500Z 07002KT 40SM FEW012 SCT045 BKN071 06/04 A2973 RMK CF1SC2AC4 SLP091

CYZF - Yellowknife International Airport  
CYZF 241500Z 14013G19KT 15SM FEW250 12/M02 A2980 RMK CI1 CI TR SLP102

CYMM - Fort McMurray Airport  
CYMM 241500Z AUTO 08006KT 060V150 9SM CLR 11/04 A2984 RMK SLP117

CYQF - Red Deer Regional Airport  
CYQF 241522Z AUTO 13004KT 9SM BKN018 08/05 A2973 RMK SLP089

CZVL - Edmonton / Villeneuve Airport  
CZVL 241500Z AUTO 08005KT 060V140 9SM BKN071 10/04 A2975 RMK SLP089

CYBW - Calgary / Springbank Airport  
CYBW 241500Z AUTO 35004KT 9SM FEW081 SCT170 SCT190 07/05 A2972 RMK SLP092 DENSITY ALT 4200FT

CYOD - CFB Cold Lake  
CYOD 241534Z 09009KT 15SM OVC010 08/06 A2981 RMK SF8 DENSITY ALT 1512FT SLP111

  View Our Airspace